createdAt,value
2023-04-28T00:01:38.071Z,7.93
2023-04-28T00:04:05.296Z,10.85
2023-04-28T00:06:32.165Z,7.22
2023-04-28T00:08:58.897Z,7.55
2023-04-28T00:11:25.595Z,10.65
2023-04-28T00:13:52.167Z,6.07
2023-04-28T00:16:18.906Z,6.43
2023-04-28T00:18:45.466Z,5.63
2023-04-28T00:21:12.124Z,5.53
2023-04-28T00:23:38.657Z,10.95
2023-04-28T00:26:06.160Z,9.05
2023-04-28T00:28:34.701Z,8.57
2023-04-28T00:31:02.303Z,8.73
2023-04-28T00:33:28.912Z,5.53
2023-04-28T00:36:00.620Z,5.47
2023-04-28T00:38:27.274Z,5.68
2023-04-28T00:40:53.967Z,10.27
2023-04-28T00:43:20.610Z,7.90
2023-04-28T00:45:47.265Z,8.75
2023-04-28T00:48:14.222Z,5.35
2023-04-28T00:50:41.792Z,5.35
2023-04-28T00:53:08.609Z,5.47
2023-04-28T00:55:35.753Z,6.90
2023-04-28T00:58:02.614Z,7.82
2023-04-28T01:00:29.307Z,7.75
2023-04-28T01:02:57.756Z,7.47
2023-04-28T01:05:29.558Z,11.68
2023-04-28T01:07:56.795Z,12.80
2023-04-28T01:10:23.420Z,9.00
2023-04-28T01:12:49.981Z,5.18
2023-04-28T01:15:19.044Z,7.97
2023-04-28T01:17:47.445Z,8.98
2023-04-28T01:20:15.166Z,6.80
2023-04-28T01:22:42.470Z,7.72
2023-04-28T01:25:09.765Z,9.18
2023-04-28T01:27:39.376Z,11.50
2023-04-28T01:30:06.823Z,8.23
2023-04-28T01:32:33.707Z,12.30
2023-04-28T01:35:00.334Z,7.28
2023-04-28T01:37:26.929Z,7.95
2023-04-28T01:39:54.132Z,13.38
2023-04-28T01:42:20.970Z,7.57
2023-04-28T01:44:47.682Z,6.45
2023-04-28T01:47:14.369Z,5.68
2023-04-28T01:49:40.898Z,6.43
2023-04-28T01:52:07.918Z,7.22
2023-04-28T01:54:35.121Z,6.75
2023-04-28T01:57:03.249Z,5.95
2023-04-28T01:59:31.112Z,11.73
2023-04-28T02:01:57.935Z,7.68
2023-04-28T02:04:25.141Z,9.00
2023-04-28T02:06:51.820Z,7.03
2023-04-28T02:09:18.576Z,10.65
2023-04-28T02:11:45.266Z,10.73
2023-04-28T02:14:11.853Z,5.80
2023-04-28T02:16:38.470Z,6.45
2023-04-28T02:19:05.065Z,7.82
2023-04-28T02:21:31.961Z,8.63
2023-04-28T02:23:58.828Z,9.13
2023-04-28T02:26:25.891Z,11.35
2023-04-28T02:28:52.546Z,6.70
2023-04-28T02:31:19.204Z,7.63
2023-04-28T02:33:46.283Z,10.70
2023-04-28T02:36:13.239Z,9.10
2023-04-28T02:38:41.737Z,10.82
2023-04-28T02:41:11.761Z,8.23
2023-04-28T02:43:38.425Z,11.88
2023-04-28T02:46:05.703Z,7.63
2023-04-28T02:48:33.960Z,9.77
2023-04-28T02:51:00.558Z,9.25
2023-04-28T02:53:27.412Z,10.70
2023-04-28T02:55:54.424Z,9.40
2023-04-28T02:58:21.116Z,11.23
2023-04-28T03:00:48.136Z,14.40
2023-04-28T03:03:16.260Z,9.20
2023-04-28T03:05:43.183Z,10.32
2023-04-28T03:08:10.110Z,10.27
2023-04-28T03:10:36.940Z,10.80
2023-04-28T03:13:04.543Z,11.10
2023-04-28T03:15:31.166Z,11.68
2023-04-28T03:17:58.087Z,9.68
2023-04-28T03:20:24.770Z,8.60
2023-04-28T03:22:51.365Z,10.35
2023-04-28T03:25:18.490Z,11.90
2023-04-28T03:27:50.986Z,14.95
2023-04-28T03:30:17.852Z,12.18
2023-04-28T03:32:44.551Z,13.10
2023-04-28T03:35:14.249Z,17.00
2023-04-28T03:37:41.540Z,13.63
2023-04-28T03:40:08.848Z,12.60
2023-04-28T03:42:53.210Z,14.18
2023-04-28T03:45:33.677Z,14.48
2023-04-28T03:48:00.500Z,9.68
2023-04-28T03:50:27.105Z,14.65
2023-04-28T03:52:54.783Z,11.63
2023-04-28T03:55:21.956Z,11.57
2023-04-28T03:57:48.664Z,10.23
2023-04-28T04:00:16.475Z,12.80
2023-04-28T04:02:45.341Z,11.70
2023-04-28T04:05:15.473Z,13.27
2023-04-28T04:07:42.306Z,10.82
2023-04-28T04:10:11.830Z,17.38
2023-04-28T04:12:41.898Z,17.13
2023-04-28T04:15:09.189Z,13.52
2023-04-28T04:17:37.067Z,19.55
2023-04-28T04:20:03.856Z,14.75
2023-04-28T04:22:30.440Z,11.77
2023-04-28T04:24:57.031Z,10.30
2023-04-28T04:27:25.841Z,14.23
2023-04-28T04:29:52.459Z,12.60
2023-04-28T04:32:19.021Z,13.80
2023-04-28T04:34:45.775Z,14.07
2023-04-28T04:37:13.197Z,12.40
2023-04-28T04:39:50.164Z,13.80
2023-04-28T04:42:24.296Z,13.07
2023-04-28T04:45:03.429Z,14.25
2023-04-28T04:47:31.005Z,14.93
2023-04-28T04:49:57.999Z,14.77
2023-04-28T04:52:25.036Z,14.52
2023-04-28T04:54:52.008Z,11.90
2023-04-28T04:57:18.799Z,15.38
2023-04-28T05:00:06.162Z,12.57
2023-04-28T05:02:32.829Z,15.10
2023-04-28T05:05:08.535Z,17.83
2023-04-28T05:07:48.269Z,15.23
2023-04-28T05:10:15.077Z,13.13
2023-04-28T05:12:45.614Z,15.65
2023-04-28T05:15:14.613Z,14.57
2023-04-28T05:17:50.912Z,12.20
2023-04-28T05:20:17.878Z,15.95
2023-04-28T05:22:44.556Z,12.98
2023-04-28T05:25:13.804Z,15.13
2023-04-28T05:27:41.142Z,14.48
2023-04-28T05:30:10.563Z,13.50
2023-04-28T05:32:38.272Z,15.60
2023-04-28T05:35:05.894Z,14.23
2023-04-28T05:37:32.451Z,13.40
2023-04-28T05:39:59.125Z,12.88
2023-04-28T05:42:25.946Z,13.20
2023-04-28T05:44:52.668Z,11.15
2023-04-28T05:47:19.269Z,12.48
2023-04-28T05:49:47.883Z,13.73
2023-04-28T05:52:14.525Z,14.82
2023-04-28T05:54:41.170Z,13.10
2023-04-28T05:57:08.139Z,13.85
2023-04-28T05:59:35.144Z,13.38
2023-04-28T06:02:02.417Z,16.60
2023-04-28T06:04:29.675Z,21.25
2023-04-28T06:06:56.994Z,18.23
2023-04-28T06:09:23.885Z,14.43
2023-04-28T06:11:52.819Z,14.27
2023-04-28T06:14:19.948Z,17.02
2023-04-28T06:16:47.543Z,16.90
2023-04-28T06:19:15.327Z,15.05
2023-04-28T06:21:41.997Z,12.00
2023-04-28T06:24:08.583Z,16.05
2023-04-28T06:26:35.734Z,14.45
2023-04-28T06:29:02.376Z,13.63
2023-04-28T06:31:29.930Z,16.98
2023-04-28T06:33:56.674Z,15.23
2023-04-28T06:36:24.243Z,15.85
2023-04-28T06:38:51.486Z,14.20
2023-04-28T06:41:18.093Z,17.63
2023-04-28T06:43:48.067Z,20.77
2023-04-28T06:46:20.099Z,23.42
2023-04-28T06:48:46.919Z,20.80
2023-04-28T06:51:16.644Z,15.23
2023-04-28T06:53:43.398Z,13.98
2023-04-28T06:56:11.609Z,16.65
2023-04-28T06:58:38.462Z,15.27
2023-04-28T07:01:05.793Z,15.38
2023-04-28T07:03:32.742Z,14.45
2023-04-28T07:05:59.662Z,13.80
2023-04-28T07:08:26.804Z,12.27
2023-04-28T07:10:53.329Z,16.55
2023-04-28T07:13:19.924Z,16.33
2023-04-28T07:15:46.617Z,15.60
2023-04-28T07:18:13.289Z,12.98
2023-04-28T07:20:39.964Z,19.70
2023-04-28T07:23:06.582Z,13.23
2023-04-28T07:25:33.432Z,14.88
2023-04-28T07:28:03.107Z,16.83
2023-04-28T07:32:56.360Z,14.75
2023-04-28T07:35:23.715Z,14.35
2023-04-28T07:37:50.595Z,13.70
2023-04-28T07:40:17.898Z,15.50
2023-04-28T07:42:45.326Z,15.13
2023-04-28T07:45:12.362Z,15.90
2023-04-28T07:47:39.000Z,15.45
2023-04-28T07:50:06.943Z,19.38
2023-04-28T07:52:34.251Z,17.20
2023-04-28T07:55:02.623Z,13.75
2023-04-28T07:57:29.380Z,12.63
2023-04-28T07:59:56.172Z,10.60
2023-04-28T08:02:23.015Z,12.60
2023-04-28T08:04:49.788Z,15.77
2023-04-28T08:07:16.572Z,13.60
2023-04-28T08:09:47.159Z,16.92
2023-04-28T08:12:14.878Z,16.27
2023-04-28T08:14:41.594Z,15.85
2023-04-28T08:17:11.616Z,10.75
2023-04-28T08:19:38.225Z,17.23
2023-04-28T08:22:07.805Z,14.10
2023-04-28T08:27:04.229Z,13.20
2023-04-28T08:29:32.085Z,11.57
2023-04-28T08:31:59.327Z,11.52
2023-04-28T08:34:25.991Z,15.75
2023-04-28T08:36:53.316Z,13.57
2023-04-28T08:39:20.792Z,14.13
2023-04-28T08:41:47.479Z,14.65
2023-04-28T08:44:14.335Z,16.55
2023-04-28T08:46:42.241Z,14.15
2023-04-28T08:49:14.600Z,15.18
2023-04-28T08:52:05.210Z,17.77
2023-04-28T08:54:33.551Z,14.43
2023-04-28T08:57:01.216Z,13.48
2023-04-28T08:59:28.130Z,13.13
2023-04-28T09:01:54.876Z,10.95
2023-04-28T09:04:22.297Z,13.75
2023-04-28T09:06:49.209Z,16.15
2023-04-28T09:09:27.448Z,14.38
2023-04-28T09:12:02.723Z,14.43
2023-04-28T09:14:31.028Z,14.48
2023-04-28T09:16:57.639Z,14.40
2023-04-28T09:19:24.776Z,17.42
2023-04-28T09:21:54.464Z,18.58
2023-04-28T09:24:34.448Z,18.58
2023-04-28T09:27:02.862Z,17.58
2023-04-28T09:29:33.823Z,17.58
2023-04-28T09:32:12.835Z,17.38
2023-04-28T09:34:45.758Z,14.95
2023-04-28T09:37:17.259Z,17.13
2023-04-28T09:39:49.350Z,16.38
2023-04-28T09:42:34.602Z,17.25
2023-04-28T09:45:10.136Z,15.50
2023-04-28T09:47:48.142Z,13.20
2023-04-28T09:50:17.507Z,14.32
2023-04-28T09:52:46.904Z,19.98
2023-04-28T09:55:13.729Z,15.35
2023-04-28T09:57:40.623Z,13.13
2023-04-28T10:00:09.460Z,17.65
2023-04-28T10:05:10.449Z,19.83
2023-04-28T10:10:08.452Z,12.15
2023-04-28T10:12:38.375Z,15.13
2023-04-28T10:15:06.361Z,15.05
2023-04-28T10:17:33.830Z,11.57
2023-04-28T10:20:08.737Z,13.48
2023-04-28T10:22:57.330Z,14.45
2023-04-28T10:25:30.064Z,14.20
2023-04-28T10:27:58.612Z,13.85
2023-04-28T10:30:29.651Z,14.65
2023-04-28T10:33:06.303Z,13.63
2023-04-28T10:35:33.249Z,12.68
2023-04-28T10:38:05.652Z,17.73
2023-04-28T10:40:39.934Z,13.27
2023-04-28T10:43:08.692Z,11.55
2023-04-28T10:45:57.775Z,11.37
2023-04-28T10:51:03.966Z,16.20
2023-04-28T10:53:43.293Z,15.93
2023-04-28T10:56:26.874Z,15.88
2023-04-28T10:58:58.153Z,11.35
2023-04-28T11:01:29.718Z,15.15
2023-04-28T11:04:18.370Z,16.98
2023-04-28T11:07:12.955Z,13.35
2023-04-28T11:09:40.343Z,12.85
2023-04-28T11:12:10.577Z,10.95
2023-04-28T11:14:40.536Z,13.93
2023-04-28T11:17:13.604Z,9.43
2023-04-28T11:19:48.722Z,11.15
2023-04-28T11:22:15.628Z,15.50
2023-04-28T11:24:55.187Z,12.60
2023-04-28T11:27:26.854Z,9.82
2023-04-28T11:29:54.052Z,12.52
2023-04-28T11:32:49.637Z,10.77
2023-04-28T11:35:16.319Z,10.90
2023-04-28T11:37:42.934Z,13.75
2023-04-28T11:40:13.441Z,12.90
2023-04-28T11:42:49.656Z,12.10
2023-04-28T11:45:16.467Z,11.65
2023-04-28T11:47:43.432Z,11.25
2023-04-28T11:50:10.279Z,12.65
2023-04-28T11:52:37.463Z,16.50
2023-04-28T11:55:04.917Z,14.18
2023-04-28T11:57:31.479Z,10.52
2023-04-28T12:00:15.433Z,15.40
2023-04-28T12:02:42.276Z,10.23
2023-04-28T12:05:10.920Z,13.13
2023-04-28T12:07:45.533Z,11.32
2023-04-28T12:10:17.032Z,13.57
2023-04-28T12:12:51.904Z,13.57
2023-04-28T12:15:21.217Z,14.98
2023-04-28T12:17:50.763Z,13.18
2023-04-28T12:20:38.468Z,16.00
2023-04-28T12:23:06.179Z,15.48
2023-04-28T12:25:34.101Z,11.95
2023-04-28T12:28:05.659Z,11.50
2023-04-28T12:30:34.505Z,9.90
2023-04-28T12:33:01.372Z,18.05
2023-04-28T12:35:29.300Z,15.40
2023-04-28T12:37:56.993Z,11.60
2023-04-28T12:40:24.578Z,13.05
2023-04-28T12:42:51.494Z,13.05
2023-04-28T12:45:18.279Z,18.33
2023-04-28T12:47:44.986Z,12.27
2023-04-28T12:50:12.068Z,11.45
2023-04-28T12:52:38.654Z,12.38
2023-04-28T12:55:05.683Z,14.65
2023-04-28T12:57:32.410Z,12.40
2023-04-28T12:59:59.014Z,14.85
2023-04-28T13:02:25.988Z,12.95
2023-04-28T13:04:52.957Z,12.35
2023-04-28T13:07:19.831Z,12.30
2023-04-28T13:09:47.601Z,13.20
2023-04-28T13:12:14.941Z,13.60
2023-04-28T13:14:42.130Z,11.43
2023-04-28T13:17:10.109Z,14.25
2023-04-28T13:19:37.391Z,14.80
2023-04-28T13:22:05.903Z,13.45
2023-04-28T13:24:35.761Z,12.73
2023-04-28T13:27:04.011Z,11.57
2023-04-28T13:29:30.634Z,13.88
2023-04-28T13:31:57.317Z,15.68
2023-04-28T13:34:25.488Z,14.15
2023-04-28T13:36:53.991Z,14.05
2023-04-28T13:39:31.751Z,17.97
2023-04-28T13:44:26.861Z,15.32
2023-04-28T13:46:53.760Z,14.18
2023-04-28T13:49:20.410Z,14.40
2023-04-28T13:51:47.409Z,14.18
2023-04-28T13:54:14.193Z,13.35
2023-04-28T13:56:41.552Z,20.75
2023-04-28T13:59:08.183Z,17.95
2023-04-28T14:01:34.849Z,14.20
2023-04-28T14:04:02.043Z,12.20
2023-04-28T14:06:28.990Z,15.98
2023-04-28T14:08:55.650Z,15.23
2023-04-28T14:11:22.760Z,15.45
2023-04-28T14:13:49.421Z,13.23
2023-04-28T14:16:16.508Z,15.57
2023-04-28T14:18:43.185Z,15.38
2023-04-28T14:21:09.987Z,15.82
2023-04-28T14:23:36.665Z,17.27
2023-04-28T14:26:03.568Z,15.23
2023-04-28T14:28:30.154Z,16.33
2023-04-28T14:30:56.884Z,14.82
2023-04-28T14:33:23.656Z,16.77
2023-04-28T14:35:50.232Z,23.23
2023-04-28T14:38:16.910Z,29.42
2023-04-28T14:40:43.535Z,28.38
2023-04-28T14:43:10.116Z,26.90
2023-04-28T14:45:38.191Z,26.75
2023-04-28T14:48:06.765Z,30.75
2023-04-28T14:50:33.554Z,24.48
2023-04-28T14:53:05.334Z,30.27
2023-04-28T14:55:32.041Z,30.05
2023-04-28T14:57:58.898Z,25.75
2023-04-28T15:00:25.533Z,26.80
2023-04-28T15:02:52.240Z,23.50
2023-04-28T15:05:19.478Z,23.13
2023-04-28T15:07:46.114Z,24.85
2023-04-28T15:10:12.761Z,26.88
2023-04-28T15:12:40.100Z,24.73
2023-04-28T15:15:07.884Z,28.55
2023-04-28T15:17:34.678Z,23.77
2023-04-28T15:20:01.392Z,22.23
2023-04-28T15:22:27.938Z,20.95
2023-04-28T15:24:55.795Z,23.55
2023-04-28T15:27:23.113Z,24.17
2023-04-28T15:29:50.478Z,23.75
2023-04-28T15:32:17.582Z,23.63
2023-04-28T15:34:44.215Z,20.92
2023-04-28T15:37:44.525Z,19.25
2023-04-28T15:40:16.596Z,21.40
2023-04-28T15:42:48.867Z,21.08
2023-04-28T15:45:16.660Z,20.27
2023-04-28T15:47:43.851Z,19.05
2023-04-28T15:50:11.646Z,20.88
2023-04-28T15:52:40.693Z,18.55
2023-04-28T15:55:08.445Z,18.60
2023-04-28T15:57:36.576Z,20.08
2023-04-28T16:00:03.517Z,26.15
2023-04-28T16:02:34.934Z,19.65
2023-04-28T16:05:03.594Z,20.50
2023-04-28T16:07:37.694Z,21.75
2023-04-28T16:10:08.513Z,23.02
2023-04-28T16:12:36.248Z,20.08
2023-04-28T16:15:03.955Z,20.40
2023-04-28T16:17:30.750Z,24.98
2023-04-28T16:20:00.009Z,22.38
2023-04-28T16:25:29.752Z,19.90
2023-04-28T16:28:04.500Z,24.07
2023-04-28T16:30:41.891Z,25.45
2023-04-28T16:33:18.836Z,26.00
2023-04-28T16:35:59.516Z,23.33
2023-04-28T16:38:29.215Z,22.25
2023-04-28T16:41:01.337Z,22.95
2023-04-28T16:43:32.756Z,21.67
2023-04-28T16:46:24.097Z,22.88
2023-04-28T16:48:59.312Z,21.25
2023-04-28T16:51:33.056Z,20.42
2023-04-28T16:54:04.753Z,19.33
2023-04-28T16:56:57.548Z,20.50
2023-04-28T16:59:31.823Z,19.52
2023-04-28T17:02:10.104Z,19.92
2023-04-28T17:04:41.824Z,20.30
2023-04-28T17:07:28.999Z,20.00
2023-04-28T17:10:08.505Z,17.40
2023-04-28T17:12:46.146Z,13.98
2023-04-28T17:15:24.658Z,10.88
2023-04-28T17:17:54.481Z,11.10
2023-04-28T17:20:33.941Z,9.63
2023-04-28T17:23:11.237Z,9.02
2023-04-28T17:25:44.194Z,11.10
2023-04-28T17:28:19.813Z,8.40
2023-04-28T17:31:01.606Z,8.07
2023-04-28T17:33:34.923Z,7.30
2023-04-28T17:36:10.599Z,7.65
2023-04-28T17:39:01.445Z,9.02
2023-04-28T17:44:16.460Z,7.68
2023-04-28T17:47:18.875Z,9.88
2023-04-28T17:50:18.314Z,6.80
2023-04-28T17:52:52.511Z,9.48
2023-04-28T17:55:38.385Z,7.40
2023-04-28T17:58:18.879Z,7.15
2023-04-28T18:00:59.639Z,6.30
2023-04-28T18:03:31.356Z,6.40
2023-04-28T18:06:11.781Z,6.60
2023-04-28T18:08:45.457Z,9.82
2023-04-28T18:11:30.327Z,6.50
2023-04-28T18:17:07.112Z,7.47
2023-04-28T18:19:36.559Z,7.60
2023-04-28T18:24:56.654Z,6.85
2023-04-28T18:27:28.011Z,7.55
2023-04-28T18:30:00.371Z,9.63
2023-04-28T18:32:44.513Z,6.90
2023-04-28T18:35:28.240Z,6.80
2023-04-28T18:38:01.209Z,7.20
2023-04-28T18:40:45.904Z,6.65
2023-04-28T18:43:30.384Z,6.13
2023-04-28T18:46:07.130Z,7.57
2023-04-28T18:48:42.762Z,7.13
2023-04-28T18:51:24.044Z,9.30
2023-04-28T18:54:04.797Z,7.75
2023-04-28T18:56:45.623Z,6.75
2023-04-28T18:59:31.410Z,7.75
2023-04-28T19:01:58.621Z,7.68
2023-04-28T19:04:28.622Z,9.18
2023-04-28T19:07:01.166Z,7.05
2023-04-28T19:09:27.902Z,7.47
2023-04-28T19:11:54.507Z,9.43
2023-04-28T19:14:21.078Z,8.75
2023-04-28T19:16:47.733Z,10.73
2023-04-28T19:19:14.479Z,8.70
2023-04-28T19:21:42.680Z,7.82
2023-04-28T19:24:09.436Z,9.57
2023-04-28T19:26:36.052Z,6.97
2023-04-28T19:29:02.674Z,7.00
2023-04-28T19:31:29.450Z,7.75
2023-04-28T19:33:56.702Z,7.10
2023-04-28T19:36:24.037Z,7.43
2023-04-28T19:38:50.853Z,7.22
2023-04-28T19:41:17.580Z,8.05
2023-04-28T19:43:44.176Z,7.65
2023-04-28T19:46:10.794Z,8.73
2023-04-28T19:48:37.520Z,9.60
2023-04-28T19:51:04.217Z,8.60
2023-04-28T19:53:30.811Z,9.00
2023-04-28T19:56:00.874Z,8.95
2023-04-28T19:58:27.755Z,12.05
2023-04-28T20:00:54.296Z,12.32
2023-04-28T20:03:21.208Z,10.07
2023-04-28T20:05:47.881Z,13.65
2023-04-28T20:08:14.526Z,10.23
2023-04-28T20:10:41.306Z,11.60
2023-04-28T20:13:08.061Z,13.20
2023-04-28T20:15:34.753Z,11.45
2023-04-28T20:18:01.724Z,11.02
2023-04-28T20:20:28.798Z,10.73
2023-04-28T20:22:55.387Z,13.57
2023-04-28T20:25:22.723Z,13.57
2023-04-28T20:27:49.561Z,13.95
2023-04-28T20:30:16.390Z,14.80
2023-04-28T20:32:43.027Z,14.38
2023-04-28T20:35:10.010Z,14.10
2023-04-28T20:37:36.705Z,14.85
2023-04-28T20:40:04.643Z,16.70
2023-04-28T20:42:31.254Z,15.60
2023-04-28T20:44:58.207Z,16.17
2023-04-28T20:47:24.871Z,15.98
2023-04-28T20:49:51.755Z,16.63
2023-04-28T20:52:18.541Z,17.60
2023-04-28T20:54:45.768Z,16.92
2023-04-28T20:57:12.391Z,17.40
2023-04-28T20:59:39.015Z,15.90
2023-04-28T21:02:05.823Z,17.17
2023-04-28T21:04:32.885Z,17.40
2023-04-28T21:06:59.529Z,16.20
2023-04-28T21:09:26.678Z,18.30
2023-04-28T21:11:53.566Z,17.92
2023-04-28T21:14:20.263Z,16.33
2023-04-28T21:16:46.895Z,17.92
2023-04-28T21:19:13.520Z,20.45
2023-04-28T21:21:40.080Z,18.58
2023-04-28T21:24:08.124Z,18.05
2023-04-28T21:26:35.829Z,17.83
2023-04-28T21:29:02.889Z,19.05
2023-04-28T21:31:30.583Z,21.35
2023-04-28T21:33:57.616Z,16.95
2023-04-28T21:36:24.378Z,18.85
2023-04-28T21:38:50.957Z,18.95
2023-04-28T21:41:17.660Z,18.02
2023-04-28T21:43:44.306Z,17.77
2023-04-28T21:46:11.330Z,18.10
2023-04-28T21:48:38.563Z,18.42
2023-04-28T21:51:05.524Z,20.20
2023-04-28T21:53:32.101Z,19.38
2023-04-28T21:55:58.719Z,18.30
2023-04-28T21:58:25.331Z,18.33
2023-04-28T22:00:52.246Z,19.25
2023-04-28T22:03:19.089Z,18.83
2023-04-28T22:05:45.938Z,18.92
2023-04-28T22:08:17.031Z,20.25
2023-04-28T22:10:45.517Z,18.52
2023-04-28T22:13:13.015Z,21.08
2023-04-28T22:15:39.944Z,20.30
2023-04-28T22:18:07.925Z,21.20
2023-04-28T22:20:34.628Z,20.92
2023-04-28T22:23:01.243Z,24.27
2023-04-28T22:25:27.795Z,23.05
2023-04-28T22:27:54.438Z,24.55
2023-04-28T22:30:21.464Z,25.40
2023-04-28T22:32:49.288Z,24.13
2023-04-28T22:35:16.729Z,25.30
2023-04-28T22:37:43.614Z,22.55
2023-04-28T22:40:11.445Z,27.02
2023-04-28T22:42:39.471Z,23.35
2023-04-28T22:45:06.537Z,21.15
2023-04-28T22:47:34.664Z,22.92
2023-04-28T22:50:04.163Z,23.95
2023-04-28T22:52:30.766Z,24.48
2023-04-28T22:54:57.481Z,24.25
2023-04-28T22:57:24.234Z,23.95
2023-04-28T22:59:51.111Z,21.58
2023-04-28T23:02:18.070Z,19.90
2023-04-28T23:04:44.764Z,19.23
2023-04-28T23:07:11.377Z,21.90
2023-04-28T23:09:37.944Z,22.45
2023-04-28T23:12:04.839Z,23.77
2023-04-28T23:14:32.233Z,24.33
2023-04-28T23:16:59.050Z,24.80
2023-04-28T23:19:26.007Z,25.05
2023-04-28T23:21:52.691Z,27.88
2023-04-28T23:24:19.261Z,27.65
2023-04-28T23:26:45.864Z,27.23
2023-04-28T23:29:12.380Z,30.92
2023-04-28T23:31:39.724Z,30.10
2023-04-28T23:34:06.566Z,33.45
2023-04-28T23:36:33.121Z,30.38
2023-04-28T23:38:59.670Z,33.70
2023-04-28T23:41:27.037Z,35.03
2023-04-28T23:43:53.701Z,34.13
2023-04-28T23:46:20.481Z,36.13
2023-04-28T23:48:47.303Z,38.05
2023-04-28T23:51:13.803Z,43.85
2023-04-28T23:53:40.775Z,47.28
2023-04-28T23:56:07.441Z,48.47
2023-04-28T23:58:33.989Z,48.13
